Time;durP1;ratioP1;P1;durP2;ratioP2;P2;SDS_P1;SDS_P2;PMS_P1;PMS_P2;Temp;Humidity;BMP_temperature;BMP_pressure;BME280_temperature;BME280_humidity;BME280_pressure;Samples;Min_cycle;Max_cycle;Signal;HPM_P1;HPM_P2
2022/08/08 00:00:10;;;;;;;3.70;2.10;;;12.70;99.90;;;;;;4997209;28;20061;-88
2022/08/08 00:03:18;;;;;;;3.50;2.40;;;12.70;99.90;;;;;;4989296;28;20046;-88
2022/08/08 00:06:01;;;;;;;6.72;2.28;;;12.70;99.90;;;;;;4985958;28;20484;-88
2022/08/08 00:08:55;;;;;;;3.85;2.40;;;12.60;99.90;;;;;;4995830;28;20050;-88
2022/08/08 00:11:44;;;;;;;3.75;2.47;;;12.50;99.90;;;;;;5007579;28;20432;-88
2022/08/08 00:14:18;;;;;;;4.35;2.53;;;12.50;99.90;;;;;;4981618;28;20047;-88
2022/08/08 00:16:56;;;;;;;3.92;2.55;;;12.50;99.90;;;;;;4978626;28;20445;-89
2022/08/08 00:19:47;;;;;;;4.38;2.33;;;12.50;99.90;;;;;;4964126;28;20065;-88
2022/08/08 00:22:24;;;;;;;3.75;2.00;;;12.50;99.90;;;;;;4987743;28;20054;-88
2022/08/08 00:24:56;;;;;;;2.97;2.40;;;12.50;99.90;;;;;;5002295;28;20038;-88
2022/08/08 00:27:24;;;;;;;5.68;2.30;;;12.40;99.90;;;;;;4979694;28;20129;-88
2022/08/08 00:30:00;;;;;;;5.22;2.40;;;12.40;99.90;;;;;;5001490;28;20140;-88
2022/08/08 00:32:28;;;;;;;7.38;2.65;;;12.40;99.90;;;;;;4990116;28;20064;-88
2022/08/08 00:35:23;;;;;;;9.68;2.40;;;12.40;99.90;;;;;;5007018;28;20042;-88
2022/08/08 00:38:07;;;;;;;4.53;2.28;;;12.40;99.90;;;;;;4978737;28;20050;-88
2022/08/08 00:40:46;;;;;;;3.53;2.50;;;12.40;99.90;;;;;;4962809;28;20136;-88
2022/08/08 00:43:27;;;;;;;4.32;2.70;;;12.30;99.90;;;;;;4990561;28;20046;-88
2022/08/08 00:46:15;;;;;;;4.07;2.60;;;12.40;99.90;;;;;;5012319;28;20042;-88
2022/08/08 00:49:18;;;;;;;5.50;2.60;;;12.40;99.90;;;;;;4979186;28;20042;-88
2022/08/08 00:51:59;;;;;;;3.70;2.92;;;12.30;99.90;;;;;;4994870;28;20049;-88
2022/08/08 00:54:30;;;;;;;5.25;3.47;;;12.30;99.90;;;;;;4996339;28;20403;-88
2022/08/08 00:57:17;;;;;;;5.60;2.53;;;12.20;99.90;;;;;;4984191;28;20393;-88
2022/08/08 01:00:11;;;;;;;4.35;2.95;;;12.20;99.90;;;;;;4962192;28;20049;-88
2022/08/08 01:02:55;;;;;;;3.17;2.47;;;12.20;99.90;;;;;;4979929;28;20128;-88
2022/08/08 01:05:58;;;;;;;2.67;2.05;;;12.20;99.90;;;;;;4994232;28;20043;-88
2022/08/08 01:08:51;;;;;;;5.40;2.22;;;12.20;99.90;;;;;;4995442;28;20100;-88
2022/08/08 01:11:46;;;;;;;4.75;2.58;;;12.20;99.90;;;;;;4992816;28;20378;-88
2022/08/08 01:14:43;;;;;;;5.50;3.03;;;12.10;99.90;;;;;;4965635;28;20050;-88
2022/08/08 01:17:56;;;;;;;4.65;3.22;;;12.10;99.90;;;;;;4996567;28;20143;-88
2022/08/08 01:20:33;;;;;;;4.55;2.90;;;12.10;99.90;;;;;;5009167;28;20515;-89
2022/08/08 01:23:30;;;;;;;5.18;2.67;;;12.10;99.90;;;;;;4980087;28;20082;-88
2022/08/08 01:26:05;;;;;;;4.05;2.40;;;12.10;99.90;;;;;;4978005;28;20065;-88
2022/08/08 01:28:40;;;;;;;5.60;2.95;;;12.10;99.90;;;;;;4996886;28;20088;-88
2022/08/08 01:32:10;;;;;;;5.25;2.50;;;12.10;99.90;;;;;;4985032;28;20062;-88
2022/08/08 01:35:00;;;;;;;3.03;2.08;;;12.10;99.90;;;;;;4905953;29;20111;-88
2022/08/08 01:38:09;;;;;;;3.17;2.88;;;12.10;99.90;;;;;;4903467;29;20055;-88
2022/08/08 01:40:49;;;;;;;3.88;2.80;;;12.10;99.90;;;;;;4994227;28;20125;-88
2022/08/08 01:43:28;;;;;;;4.95;3.00;;;12.00;99.90;;;;;;4992330;28;20073;-88
2022/08/08 01:46:08;;;;;;;3.80;2.90;;;12.10;99.90;;;;;;4962294;28;20053;-88
2022/08/08 01:48:46;;;;;;;4.50;2.35;;;12.10;99.90;;;;;;5013433;28;20046;-88
2022/08/08 01:51:56;;;;;;;2.10;1.92;;;12.00;99.90;;;;;;4977562;28;20121;-88
2022/08/08 01:54:47;;;;;;;3.00;2.10;;;12.00;99.90;;;;;;4976998;28;20562;-88
2022/08/08 01:57:43;;;;;;;3.20;2.28;;;12.00;99.90;;;;;;4988302;28;20129;-88
2022/08/08 02:00:18;;;;;;;3.92;2.85;;;12.00;99.90;;;;;;4945566;28;20100;-88
2022/08/08 02:03:06;;;;;;;4.70;3.05;;;12.00;99.90;;;;;;5012678;28;20041;-88
2022/08/08 02:05:50;;;;;;;3.60;3.05;;;12.00;99.90;;;;;;4995460;28;20037;-88
2022/08/08 02:08:33;;;;;;;3.43;2.80;;;12.00;99.90;;;;;;4983577;28;20072;-88
2022/08/08 02:11:08;;;;;;;3.40;3.10;;;12.00;99.90;;;;;;4994591;28;20038;-88
2022/08/08 02:13:41;;;;;;;7.00;3.25;;;11.90;99.90;;;;;;4994547;28;20042;-88
2022/08/08 02:16:16;;;;;;;6.43;3.28;;;11.90;99.90;;;;;;4959239;28;20046;-88
2022/08/08 02:18:59;;;;;;;3.58;2.75;;;11.90;99.90;;;;;;4992260;28;20068;-88
2022/08/08 02:24:49;;;;;;;9.00;4.15;;;11.90;99.90;;;;;;4976819;28;20185;-88
2022/08/08 02:27:29;;;;;;;6.70;4.22;;;11.80;99.90;;;;;;4998395;28;20490;-88
2022/08/08 02:29:57;;;;;;;9.38;4.75;;;11.80;99.90;;;;;;4995881;28;20049;-88
2022/08/08 02:32:41;;;;;;;6.30;4.22;;;11.70;99.90;;;;;;4983289;28;20046;-88
2022/08/08 02:35:27;;;;;;;7.30;3.80;;;11.80;99.90;;;;;;5010836;28;20490;-88
2022/08/08 02:38:47;;;;;;;4.68;3.70;;;11.70;99.90;;;;;;4961002;28;20062;-88
2022/08/08 02:41:36;;;;;;;7.85;3.38;;;11.70;99.90;;;;;;4909538;29;20048;-88
2022/08/08 02:44:50;;;;;;;4.50;3.50;;;11.70;99.90;;;;;;4972175;28;20054;-88
2022/08/08 02:47:19;;;;;;;5.25;3.97;;;11.60;99.90;;;;;;4989545;28;20124;-87
2022/08/08 02:50:22;;;;;;;5.43;4.10;;;11.60;99.90;;;;;;4993286;28;20132;-87
2022/08/08 02:52:54;;;;;;;6.90;3.38;;;11.60;99.90;;;;;;4994279;28;20043;-88
2022/08/08 02:55:39;;;;;;;3.03;2.75;;;11.50;99.90;;;;;;4965083;28;20042;-88
2022/08/08 02:58:26;;;;;;;3.97;3.58;;;11.60;99.90;;;;;;4978995;28;20497;-88
2022/08/08 03:01:21;;;;;;;5.95;3.85;;;11.60;99.90;;;;;;4987702;28;20081;-88
2022/08/08 03:04:04;;;;;;;9.02;5.05;;;11.60;99.90;;;;;;4963762;28;20054;-88
2022/08/08 03:07:04;;;;;;;9.05;5.35;;;11.60;99.90;;;;;;4979665;28;20086;-88
2022/08/08 03:10:07;;;;;;;9.30;5.07;;;11.60;99.90;;;;;;4972896;28;20529;-88
2022/08/08 03:12:51;;;;;;;12.00;5.68;;;11.50;99.90;;;;;;4973532;28;20058;-88
2022/08/08 03:15:42;;;;;;;5.38;4.25;;;11.50;99.90;;;;;;4974798;28;20406;-88
2022/08/08 03:18:18;;;;;;;4.88;4.03;;;11.50;99.90;;;;;;4956861;28;20410;-88
2022/08/08 03:20:44;;;;;;;6.53;4.13;;;11.50;99.90;;;;;;4926249;28;20050;-88
2022/08/08 03:23:10;;;;;;;5.10;4.00;;;11.50;99.90;;;;;;4974493;28;20532;-88
2022/08/08 03:25:36;;;;;;;4.90;3.75;;;11.50;99.90;;;;;;4973787;28;20051;-88
2022/08/08 03:28:27;;;;;;;6.68;3.50;;;11.50;99.90;;;;;;4959531;28;20049;-88
2022/08/08 03:30:53;;;;;;;5.35;3.47;;;11.50;99.90;;;;;;4959029;28;20074;-88
2022/08/08 03:33:19;;;;;;;8.15;5.03;;;11.50;99.90;;;;;;4982329;28;20030;-88
2022/08/08 03:35:49;;;;;;;6.10;4.93;;;11.50;99.90;;;;;;4961085;28;20506;-88
2022/08/08 03:38:19;;;;;;;5.47;3.50;;;11.50;99.90;;;;;;4960180;28;20093;-88
2022/08/08 03:40:53;;;;;;;8.77;4.13;;;11.50;99.90;;;;;;4974853;28;20127;-87
2022/08/08 03:43:19;;;;;;;5.40;4.10;;;11.50;99.90;;;;;;4987523;28;20105;-88
2022/08/08 03:45:45;;;;;;;5.30;4.40;;;11.40;99.90;;;;;;4962881;28;20043;-88
2022/08/08 03:48:11;;;;;;;7.28;4.55;;;11.50;99.90;;;;;;4959896;28;20058;-87
2022/08/08 03:50:46;;;;;;;4.88;4.13;;;11.50;99.90;;;;;;4960834;28;20039;-88
2022/08/08 03:53:14;;;;;;;9.48;4.00;;;11.50;99.90;;;;;;4977055;28;20406;-88
2022/08/08 03:55:43;;;;;;;6.82;4.15;;;11.50;99.90;;;;;;4977457;28;20055;-88
2022/08/08 03:58:09;;;;;;;6.75;3.83;;;11.60;99.90;;;;;;4960339;28;20118;-88
2022/08/08 04:00:35;;;;;;;5.88;3.80;;;11.60;99.90;;;;;;4997301;28;20043;-87
2022/08/08 04:03:06;;;;;;;7.32;4.05;;;11.70;99.90;;;;;;4993286;28;20061;-88
2022/08/08 04:05:35;;;;;;;6.32;5.07;;;11.70;99.90;;;;;;4960322;28;20062;-88
2022/08/08 04:08:02;;;;;;;5.43;4.63;;;11.70;99.90;;;;;;4967612;28;20104;-88
2022/08/08 04:10:30;;;;;;;6.82;4.65;;;11.80;99.90;;;;;;5009732;28;20053;-88
2022/08/08 04:12:55;;;;;;;8.75;6.15;;;11.80;99.90;;;;;;5004577;28;20053;-87
2022/08/08 04:15:22;;;;;;;6.60;4.95;;;11.90;99.90;;;;;;5015370;28;20042;-88
2022/08/08 04:17:48;;;;;;;6.97;4.97;;;11.90;99.90;;;;;;5016500;28;20093;-88
2022/08/08 04:20:14;;;;;;;7.13;5.15;;;12.00;99.90;;;;;;4999419;28;20073;-88
2022/08/08 04:22:40;;;;;;;5.20;4.70;;;12.00;99.90;;;;;;4984457;28;20113;-88
2022/08/08 04:25:07;;;;;;;6.72;5.28;;;12.10;99.90;;;;;;4981335;28;20401;-88
2022/08/08 04:27:34;;;;;;;11.43;6.18;;;12.10;99.90;;;;;;4996220;28;20562;-88
2022/08/08 04:30:05;;;;;;;5.40;4.90;;;12.20;99.90;;;;;;4989848;28;20046;-88
2022/08/08 04:32:31;;;;;;;7.20;4.45;;;12.20;99.90;;;;;;4982867;28;20537;-88
2022/08/08 04:34:57;;;;;;;9.45;5.20;;;12.20;99.90;;;;;;4996043;28;20081;-88
2022/08/08 04:37:23;;;;;;;6.75;4.80;;;12.30;99.90;;;;;;4995328;28;20166;-88
2022/08/08 04:39:49;;;;;;;12.32;6.50;;;12.30;99.90;;;;;;4983512;28;20064;-88
2022/08/08 04:42:15;;;;;;;12.43;6.38;;;12.40;99.90;;;;;;4982736;28;20529;-88
2022/08/08 04:44:41;;;;;;;6.40;5.68;;;12.40;99.90;;;;;;4962863;28;20129;-88
2022/08/08 04:47:07;;;;;;;7.20;5.90;;;12.50;99.90;;;;;;4978797;28;20073;-88
2022/08/08 04:49:34;;;;;;;12.45;6.45;;;12.60;99.90;;;;;;4978408;28;20053;-88
2022/08/08 04:51:59;;;;;;;11.43;6.70;;;12.60;99.90;;;;;;5012588;28;20547;-88
2022/08/08 04:54:26;;;;;;;13.98;6.30;;;12.60;99.90;;;;;;4992704;28;20051;-88
2022/08/08 04:56:51;;;;;;;9.18;6.32;;;12.70;99.90;;;;;;4986275;28;20463;-89
2022/08/08 04:59:17;;;;;;;9.25;6.22;;;12.70;99.90;;;;;;4995635;28;20127;-89
2022/08/08 05:01:43;;;;;;;14.82;5.80;;;12.80;99.90;;;;;;4963557;28;20038;-88
2022/08/08 05:04:09;;;;;;;9.75;5.85;;;12.80;99.90;;;;;;4977807;28;20053;-88
2022/08/08 05:06:35;;;;;;;10.40;6.00;;;12.90;99.90;;;;;;4996806;28;20038;-89
2022/08/08 05:09:02;;;;;;;10.82;6.05;;;12.90;99.90;;;;;;4978063;28;20489;-88
2022/08/08 05:11:27;;;;;;;10.57;6.80;;;13.00;99.90;;;;;;4985191;28;20042;-88
2022/08/08 05:13:53;;;;;;;11.48;6.18;;;13.00;99.90;;;;;;4986585;28;20068;-88
2022/08/08 05:16:19;;;;;;;8.23;5.15;;;13.10;99.90;;;;;;4962055;28;20061;-88
2022/08/08 05:18:45;;;;;;;10.23;6.18;;;13.10;99.90;;;;;;4995626;28;20049;-88
2022/08/08 05:21:12;;;;;;;7.18;5.25;;;13.10;99.90;;;;;;5008459;28;20045;-88
2022/08/08 05:23:38;;;;;;;7.57;4.80;;;13.20;99.90;;;;;;4993971;28;20054;-89
2022/08/08 05:26:04;;;;;;;15.80;5.93;;;13.30;99.90;;;;;;4991573;28;20046;-89
2022/08/08 05:28:30;;;;;;;8.40;5.75;;;13.30;99.90;;;;;;4978856;28;20041;-89
2022/08/08 05:30:56;;;;;;;9.82;6.30;;;13.40;99.90;;;;;;4995521;28;20081;-88
2022/08/08 05:33:21;;;;;;;8.00;5.50;;;13.40;99.90;;;;;;4977453;28;20038;-88
2022/08/08 05:35:51;;;;;;;6.85;5.10;;;13.50;99.90;;;;;;5001708;28;20098;-88
2022/08/08 05:38:17;;;;;;;7.53;4.90;;;13.50;99.90;;;;;;5003022;28;20055;-88
2022/08/08 05:40:48;;;;;;;6.70;5.75;;;13.60;99.90;;;;;;4985431;28;20047;-88
2022/08/08 05:43:44;;;;;;;7.90;5.60;;;13.60;99.90;;;;;;4993355;28;20042;-88
2022/08/08 05:46:09;;;;;;;11.45;5.78;;;13.70;99.90;;;;;;4975321;28;20138;-88
2022/08/08 05:48:36;;;;;;;14.38;6.82;;;13.70;99.90;;;;;;4978014;28;20054;-88
2022/08/08 05:51:03;;;;;;;8.27;5.88;;;13.80;99.90;;;;;;4961498;28;20085;-88
2022/08/08 05:53:29;;;;;;;12.82;5.95;;;13.80;99.90;;;;;;4972145;28;20042;-88
2022/08/08 05:55:58;;;;;;;10.73;6.22;;;13.90;99.90;;;;;;4961299;28;20061;-88
2022/08/08 05:58:32;;;;;;;14.35;6.22;;;13.90;99.90;;;;;;4989713;28;20136;-88
2022/08/08 06:01:00;;;;;;;11.32;6.20;;;14.00;99.90;;;;;;5013708;28;20041;-89
2022/08/08 06:03:27;;;;;;;11.00;6.63;;;14.00;99.90;;;;;;4996888;28;20046;-88
2022/08/08 06:06:05;;;;;;;10.68;6.05;;;14.10;99.90;;;;;;4977359;28;20058;-88
2022/08/08 06:08:43;;;;;;;8.70;5.70;;;14.10;99.90;;;;;;4976526;28;20058;-88
2022/08/08 06:11:10;;;;;;;8.40;4.75;;;14.20;99.90;;;;;;4997013;28;20462;-88
2022/08/08 06:13:36;;;;;;;10.52;5.35;;;14.20;99.90;;;;;;4962962;28;20042;-88
2022/08/08 06:16:02;;;;;;;9.85;5.55;;;14.30;99.90;;;;;;4976319;28;20434;-88
2022/08/08 06:18:28;;;;;;;8.73;6.03;;;14.30;99.90;;;;;;4994538;28;20046;-89
2022/08/08 06:20:58;;;;;;;8.95;5.78;;;14.40;99.90;;;;;;4960269;28;20490;-89
2022/08/08 06:23:26;;;;;;;10.68;6.05;;;14.40;99.90;;;;;;4991871;28;20053;-89
2022/08/08 06:26:06;;;;;;;9.45;5.53;;;14.50;99.90;;;;;;4976985;28;20050;-89
2022/08/08 06:28:59;;;;;;;6.93;4.97;;;14.60;99.90;;;;;;4977304;28;20515;-89
2022/08/08 06:31:28;;;;;;;10.73;5.28;;;14.60;99.90;;;;;;4976744;28;20054;-89
2022/08/08 06:33:58;;;;;;;15.38;6.10;;;14.60;99.90;;;;;;4960554;28;20046;-89
2022/08/08 06:36:36;;;;;;;12.15;5.45;;;14.60;99.90;;;;;;4976127;28;20050;-89
2022/08/08 06:39:03;;;;;;;10.23;5.80;;;14.70;99.90;;;;;;4996329;28;20425;-89
2022/08/08 06:41:32;;;;;;;8.35;5.63;;;14.90;99.90;;;;;;4981232;28;20390;-89
2022/08/08 06:44:03;;;;;;;11.93;6.07;;;15.00;99.90;;;;;;4960125;28;20125;-89
2022/08/08 06:46:29;;;;;;;9.25;6.13;;;15.20;99.90;;;;;;4977224;28;20089;-89
2022/08/08 06:48:56;;;;;;;14.38;6.22;;;15.30;99.90;;;;;;4993401;28;20450;-89
2022/08/08 06:51:22;;;;;;;12.60;5.55;;;15.40;99.90;;;;;;4961006;28;20046;-89
2022/08/08 06:53:48;;;;;;;12.07;5.38;;;15.60;99.90;;;;;;4994362;28;20050;-89
2022/08/08 06:56:14;;;;;;;10.95;5.40;;;15.70;99.90;;;;;;4993430;28;20529;-88
2022/08/08 06:58:40;;;;;;;8.95;4.95;;;15.80;99.90;;;;;;4993763;28;20053;-89
2022/08/08 07:01:09;;;;;;;10.57;4.78;;;15.90;99.90;;;;;;4977074;28;20046;-89
2022/08/08 07:03:53;;;;;;;9.50;4.53;;;16.00;99.90;;;;;;4979289;28;20058;-89
2022/08/08 07:06:23;;;;;;;6.55;4.28;;;16.10;99.90;;;;;;4980881;28;20054;-89
2022/08/08 07:08:55;;;;;;;7.70;4.45;;;16.20;99.90;;;;;;4980404;28;20402;-88
2022/08/08 07:11:27;;;;;;;9.80;4.65;;;16.30;99.90;;;;;;4997056;28;20061;-89
2022/08/08 07:13:58;;;;;;;6.43;4.28;;;16.40;99.90;;;;;;4980264;28;20088;-89
2022/08/08 07:16:40;;;;;;;9.20;3.60;;;16.50;99.90;;;;;;4980313;28;20050;-89
2022/08/08 07:19:52;;;;;;;7.53;3.53;;;16.60;99.90;;;;;;4963430;28;20046;-89
2022/08/08 07:22:25;;;;;;;6.03;3.88;;;16.70;99.90;;;;;;4972001;28;20586;-86
2022/08/08 07:24:53;;;;;;;8.02;3.17;;;16.90;99.90;;;;;;4963270;28;20097;-85
2022/08/08 07:27:25;;;;;;;8.85;2.67;;;17.00;99.90;;;;;;4964376;28;20367;-86
2022/08/08 07:29:51;;;;;;;6.43;2.83;;;17.30;99.90;;;;;;4964059;28;20049;-88
2022/08/08 07:32:18;;;;;;;6.75;2.60;;;17.40;99.90;;;;;;4979704;28;20054;-87
2022/08/08 07:34:44;;;;;;;8.13;2.63;;;17.60;99.90;;;;;;4980488;28;20398;-88
2022/08/08 07:37:12;;;;;;;3.20;1.45;;;17.70;99.90;;;;;;4980497;28;20426;-88
2022/08/08 07:39:41;;;;;;;3.60;1.65;;;17.80;99.90;;;;;;4979298;28;20129;-86
2022/08/08 07:42:14;;;;;;;6.40;1.73;;;17.90;99.90;;;;;;4980299;28;20402;-88
2022/08/08 07:44:46;;;;;;;5.38;1.98;;;17.90;99.90;;;;;;4980276;28;20042;-86
2022/08/08 07:47:12;;;;;;;5.07;2.03;;;18.00;99.90;;;;;;4979109;28;20056;-89
2022/08/08 07:49:40;;;;;;;5.95;1.70;;;18.10;99.90;;;;;;4963569;28;20102;-88
2022/08/08 07:52:12;;;;;;;3.88;1.63;;;18.20;99.90;;;;;;4996826;28;20486;-87
2022/08/08 07:55:12;;;;;;;8.02;1.42;;;18.20;99.90;;;;;;4996781;28;20050;-88
2022/08/08 07:58:01;;;;;;;6.10;1.40;;;18.40;99.90;;;;;;4997063;28;20390;-88
2022/08/08 08:00:41;;;;;;;3.78;1.20;;;18.40;99.90;;;;;;4979115;28;20068;-87
2022/08/08 08:03:11;;;;;;;7.78;1.38;;;18.50;99.90;;;;;;4997149;28;20046;-87
2022/08/08 08:05:42;;;;;;;4.20;0.82;;;18.70;99.90;;;;;;4979762;28;20054;-87
2022/08/08 08:08:19;;;;;;;6.13;1.50;;;18.70;99.90;;;;;;4995974;28;20058;-88
2022/08/08 08:10:49;;;;;;;4.45;1.20;;;18.80;99.90;;;;;;4979671;28;20498;-86
2022/08/08 08:13:20;;;;;;;7.85;1.30;;;18.80;99.90;;;;;;4977983;28;20046;-87
2022/08/08 08:16:02;;;;;;;3.92;1.20;;;18.90;99.90;;;;;;4979516;28;20058;-88
2022/08/08 08:18:47;;;;;;;4.95;1.17;;;19.00;99.90;;;;;;4996974;28;20053;-88
2022/08/08 08:21:16;;;;;;;5.25;1.23;;;19.10;99.90;;;;;;4996245;28;20049;-87
2022/08/08 08:23:41;;;;;;;4.80;1.33;;;19.10;99.90;;;;;;4996640;28;20486;-87
2022/08/08 08:26:07;;;;;;;3.53;1.20;;;19.10;99.90;;;;;;4996602;28;20050;-87
2022/08/08 08:28:33;;;;;;;4.07;1.00;;;19.10;99.90;;;;;;4978275;28;20055;-88
2022/08/08 08:31:03;;;;;;;5.43;1.10;;;19.10;99.90;;;;;;4979576;28;20046;-88
2022/08/08 08:33:30;;;;;;;5.03;0.82;;;19.10;99.90;;;;;;4979289;28;20081;-86
2022/08/08 08:35:56;;;;;;;1.50;1.00;;;19.20;99.90;;;;;;4995796;28;20038;-87
2022/08/08 08:38:22;;;;;;;2.72;1.00;;;19.20;99.90;;;;;;4996445;28;20046;-88
2022/08/08 08:40:48;;;;;;;5.50;1.05;;;19.20;99.90;;;;;;4979147;28;20039;-88
2022/08/08 08:43:16;;;;;;;5.50;1.30;;;19.30;99.90;;;;;;4995688;28;20050;-88
2022/08/08 08:45:42;;;;;;;4.05;1.10;;;19.30;99.90;;;;;;4979344;28;20124;-88
2022/08/08 08:48:09;;;;;;;1.88;1.17;;;19.40;99.90;;;;;;4996800;28;20050;-86
2022/08/08 08:50:36;;;;;;;3.25;1.00;;;19.40;99.90;;;;;;4962087;28;20061;-88
2022/08/08 08:53:05;;;;;;;2.13;0.85;;;19.40;99.90;;;;;;4978861;28;20493;-88
2022/08/08 08:55:36;;;;;;;4.93;0.90;;;19.40;99.90;;;;;;4978202;28;20177;-88
2022/08/08 08:58:03;;;;;;;3.70;0.80;;;19.50;99.90;;;;;;4978626;28;20053;-86
2022/08/08 09:00:31;;;;;;;4.70;0.90;;;19.50;99.90;;;;;;4996052;28;20046;-87
2022/08/08 09:02:59;;;;;;;6.07;1.55;;;19.60;99.90;;;;;;4961886;28;20054;-88
2022/08/08 09:05:28;;;;;;;4.93;1.40;;;19.70;99.90;;;;;;4962361;28;20121;-87
2022/08/08 09:07:58;;;;;;;1.92;0.82;;;19.80;99.90;;;;;;4978543;28;20046;-87
2022/08/08 09:10:27;;;;;;;4.00;0.80;;;19.80;99.90;;;;;;4995011;28;20133;-88
2022/08/08 09:12:54;;;;;;;2.15;0.80;;;19.80;99.90;;;;;;4995570;28;20050;-85
2022/08/08 09:15:20;;;;;;;4.45;0.60;;;19.90;99.90;;;;;;4995921;28;20054;-87
2022/08/08 09:17:46;;;;;;;5.68;1.08;;;20.00;99.90;;;;;;4977671;28;20046;-87
2022/08/08 09:20:12;;;;;;;2.28;0.40;;;20.00;99.90;;;;;;4978290;28;20104;-86
2022/08/08 09:22:38;;;;;;;5.07;1.00;;;20.10;99.90;;;;;;4978131;28;20117;-87
2022/08/08 09:25:06;;;;;;;3.47;1.15;;;20.10;99.90;;;;;;4994271;28;20046;-88
2022/08/08 09:27:32;;;;;;;2.08;0.60;;;20.20;99.90;;;;;;4995833;28;20063;-87
2022/08/08 09:30:03;;;;;;;2.72;0.70;;;20.20;99.90;;;;;;4995740;28;20116;-88
2022/08/08 09:32:35;;;;;;;3.72;0.98;;;20.20;99.90;;;;;;4961004;28;20494;-86
2022/08/08 09:35:04;;;;;;;3.28;0.90;;;20.30;99.90;;;;;;4978472;28;20054;-86
2022/08/08 09:37:45;;;;;;;3.95;0.60;;;20.30;99.90;;;;;;4995240;28;20525;-85
2022/08/08 09:40:15;;;;;;;7.57;1.17;;;20.10;99.90;;;;;;4962290;28;20092;-88
2022/08/08 09:42:46;;;;;;;4.75;0.73;;;20.00;99.90;;;;;;4995546;28;20169;-86
2022/08/08 09:45:27;;;;;;;4.25;1.00;;;20.00;99.90;;;;;;4977702;28;20391;-85
2022/08/08 09:47:52;;;;;;;3.22;0.80;;;19.90;99.90;;;;;;4995262;28;20082;-89
2022/08/08 09:50:22;;;;;;;5.18;0.90;;;19.80;99.90;;;;;;4977737;28;20109;-86
2022/08/08 09:52:52;;;;;;;5.93;1.58;;;19.80;99.90;;;;;;4994311;28;20506;-86
2022/08/08 09:55:19;;;;;;;2.72;0.70;;;19.80;99.90;;;;;;4995125;28;20414;-87
2022/08/08 09:57:48;;;;;;;3.17;0.90;;;19.70;99.90;;;;;;4995150;28;20046;-87
2022/08/08 10:00:16;;;;;;;2.90;0.80;;;19.70;99.90;;;;;;4994241;28;20104;-88
2022/08/08 10:02:44;;;;;;;2.25;0.63;;;19.70;99.90;;;;;;4977620;28;20038;-88
2022/08/08 10:05:16;;;;;;;3.13;1.25;;;19.70;99.90;;;;;;4977340;28;20050;-89
2022/08/08 10:07:51;;;;;;;6.20;0.80;;;19.70;99.90;;;;;;4976626;28;20108;-87
2022/08/08 10:10:30;;;;;;;2.55;0.82;;;19.70;99.90;;;;;;4977746;28;20054;-88
2022/08/08 10:12:57;;;;;;;3.20;0.73;;;19.70;99.90;;;;;;4994138;28;20132;-86
2022/08/08 10:15:24;;;;;;;3.25;0.65;;;19.70;99.90;;;;;;4994535;28;20093;-88
2022/08/08 10:17:52;;;;;;;4.38;0.73;;;19.70;99.90;;;;;;4961156;28;20486;-88
2022/08/08 10:20:20;;;;;;;2.50;0.68;;;19.70;99.90;;;;;;4976669;28;20046;-87
2022/08/08 10:22:56;;;;;;;7.25;1.05;;;19.70;99.90;;;;;;4994893;28;20039;-87
2022/08/08 10:25:23;;;;;;;3.53;0.75;;;19.70;99.90;;;;;;4977178;28;20058;-87
2022/08/08 10:27:52;;;;;;;3.97;0.80;;;19.70;99.90;;;;;;4976368;28;20038;-87
2022/08/08 10:30:19;;;;;;;5.30;1.00;;;19.70;99.90;;;;;;4994690;28;20042;-88
2022/08/08 10:32:53;;;;;;;4.22;0.82;;;19.70;99.90;;;;;;4994553;28;20135;-88
2022/08/08 10:35:25;;;;;;;3.13;0.85;;;19.40;99.90;;;;;;4977119;28;20056;-86
2022/08/08 10:37:58;;;;;;;6.15;1.10;;;19.70;99.90;;;;;;4994469;28;20183;-87
2022/08/08 10:40:26;;;;;;;3.88;1.00;;;19.70;99.90;;;;;;4979754;28;20046;-85
2022/08/08 10:43:01;;;;;;;4.30;1.52;;;19.70;99.90;;;;;;4981096;28;20054;-87
2022/08/08 10:45:29;;;;;;;6.45;2.08;;;19.70;99.90;;;;;;4966936;28;20077;-86
2022/08/08 10:47:59;;;;;;;4.65;1.20;;;19.70;99.90;;;;;;4979485;28;20049;-87
2022/08/08 10:50:37;;;;;;;4.70;1.23;;;19.70;99.90;;;;;;4961095;28;20121;-87
2022/08/08 10:53:05;;;;;;;5.22;1.13;;;19.70;99.90;;;;;;4961177;28;20050;-88
2022/08/08 10:55:31;;;;;;;3.45;1.10;;;19.80;99.90;;;;;;4993564;28;20038;-85
2022/08/08 10:58:03;;;;;;;5.40;1.65;;;19.80;99.90;;;;;;4994046;28;20050;-86
2022/08/08 11:00:30;;;;;;;4.22;1.00;;;19.70;99.90;;;;;;4976774;28;20133;-88
2022/08/08 11:03:08;;;;;;;5.05;1.27;;;19.80;99.90;;;;;;4993328;28;20490;-86
2022/08/08 11:05:48;;;;;;;6.95;1.30;;;19.80;99.90;;;;;;4976878;28;20556;-87
2022/08/08 11:08:27;;;;;;;4.28;1.10;;;19.70;99.90;;;;;;4960979;28;20051;-87
2022/08/08 11:11:08;;;;;;;5.28;1.10;;;19.80;99.90;;;;;;4993767;28;20464;-88
2022/08/08 11:13:46;;;;;;;2.50;1.38;;;19.80;99.90;;;;;;4976861;28;20047;-87
2022/08/08 11:16:27;;;;;;;5.30;0.95;;;19.90;99.90;;;;;;4975879;28;20058;-88
2022/08/08 11:18:54;;;;;;;5.72;1.45;;;20.00;99.90;;;;;;4976844;28;20096;-87
2022/08/08 11:21:22;;;;;;;5.53;1.02;;;20.10;99.90;;;;;;4976906;28;20042;-88
2022/08/08 11:23:49;;;;;;;5.97;1.50;;;20.20;99.90;;;;;;4976186;28;20054;-88
2022/08/08 11:26:18;;;;;;;3.80;1.30;;;20.40;99.90;;;;;;4994064;28;20050;-88
2022/08/08 11:28:45;;;;;;;3.25;1.08;;;20.50;99.90;;;;;;4994127;28;20042;-86
2022/08/08 11:31:15;;;;;;;3.05;0.60;;;20.60;99.90;;;;;;4993088;28;20105;-86
2022/08/08 11:33:49;;;;;;;4.45;1.17;;;20.50;99.90;;;;;;4994564;28;20445;-86
2022/08/08 11:36:14;;;;;;;1.87;0.83;;;20.60;99.90;;;;;;4976616;28;20060;-86
2022/08/08 11:38:45;;;;;;;4.00;0.88;;;20.60;99.90;;;;;;4975821;28;20042;-87
2022/08/08 11:41:13;;;;;;;7.68;0.95;;;20.60;99.90;;;;;;4993911;28;20475;-86
2022/08/08 11:43:40;;;;;;;3.92;1.70;;;20.60;99.90;;;;;;4994083;28;20471;-87
2022/08/08 11:46:07;;;;;;;8.98;0.98;;;20.60;99.90;;;;;;4976089;28;20123;-87
2022/08/08 11:48:33;;;;;;;2.88;1.00;;;20.70;99.90;;;;;;4978565;28;20519;-88
2022/08/08 11:51:00;;;;;;;2.83;0.90;;;20.70;99.90;;;;;;4980140;28;20042;-88
2022/08/08 11:53:26;;;;;;;6.82;1.40;;;20.70;99.90;;;;;;4979099;28;20513;-88
2022/08/08 11:55:52;;;;;;;4.05;0.90;;;20.70;99.90;;;;;;4963850;28;20560;-87
2022/08/08 11:58:18;;;;;;;4.30;1.05;;;20.80;99.90;;;;;;4963139;28;20042;-88
2022/08/08 12:00:44;;;;;;;3.92;1.00;;;20.80;99.90;;;;;;4997268;28;20042;-87
2022/08/08 12:03:42;;;;;;;6.63;1.25;;;20.80;99.90;;;;;;4979599;28;20053;-88
2022/08/08 12:06:18;;;;;;;4.38;1.00;;;20.90;99.90;;;;;;4978278;28;20150;-87
2022/08/08 12:08:44;;;;;;;3.08;1.05;;;20.90;99.90;;;;;;4979671;28;20062;-86
2022/08/08 12:11:17;;;;;;;3.53;1.42;;;20.90;99.90;;;;;;4979876;28;20429;-87
2022/08/08 12:13:47;;;;;;;7.70;0.95;;;20.90;99.90;;;;;;4979462;28;20405;-88
2022/08/08 12:16:18;;;;;;;2.58;1.00;;;20.80;99.90;;;;;;4963508;28;20046;-85
2022/08/08 12:18:46;;;;;;;7.13;1.65;;;20.90;99.90;;;;;;4997055;28;20398;-88
2022/08/08 12:21:27;;;;;;;2.50;0.77;;;20.90;99.90;;;;;;4962680;28;20042;-88
2022/08/08 12:24:06;;;;;;;3.45;0.80;;;20.90;99.90;;;;;;4996817;28;20058;-88
2022/08/08 12:26:43;;;;;;;4.20;1.00;;;20.90;99.90;;;;;;4978541;28;20046;-86
2022/08/08 12:29:25;;;;;;;3.58;1.10;;;20.90;99.90;;;;;;4963241;28;20042;-88
2022/08/08 12:32:14;;;;;;;2.63;0.70;;;20.90;99.90;;;;;;4963450;28;20047;-86
2022/08/08 12:34:50;;;;;;;3.22;0.93;;;20.80;99.90;;;;;;4978513;28;20441;-88
2022/08/08 12:37:21;;;;;;;3.83;1.02;;;20.80;99.90;;;;;;4978950;28;20057;-87
2022/08/08 12:39:47;;;;;;;6.47;1.40;;;20.80;99.90;;;;;;4979010;28;20058;-86
2022/08/08 12:42:14;;;;;;;7.00;1.05;;;20.70;99.90;;;;;;4978397;28;20053;-85
2022/08/08 12:44:41;;;;;;;3.92;1.15;;;20.60;99.90;;;;;;4979065;28;20042;-87
2022/08/08 12:47:08;;;;;;;4.38;1.00;;;20.60;99.90;;;;;;4996333;28;20085;-88
2022/08/08 12:49:36;;;;;;;4.20;1.40;;;20.60;99.90;;;;;;4978131;28;20671;-87
2022/08/08 12:52:03;;;;;;;6.13;1.02;;;20.70;99.90;;;;;;4963218;28;20050;-87
2022/08/08 12:54:32;;;;;;;4.43;1.23;;;20.70;99.90;;;;;;4978884;28;20077;-88
2022/08/08 12:57:01;;;;;;;3.45;1.40;;;20.80;99.90;;;;;;4978731;28;20042;-88
2022/08/08 12:59:28;;;;;;;5.68;1.08;;;20.80;99.90;;;;;;4995430;28;20069;-89
2022/08/08 13:01:59;;;;;;;6.10;1.33;;;20.90;99.90;;;;;;4977863;28;20050;-87
2022/08/08 13:04:26;;;;;;;7.18;1.35;;;20.90;99.90;;;;;;4962493;28;20050;-88
2022/08/08 13:07:00;;;;;;;5.15;1.10;;;21.00;99.90;;;;;;4962277;28;20046;-87
2022/08/08 13:09:56;;;;;;;3.20;1.00;;;21.00;99.90;;;;;;4977679;28;20058;-87
2022/08/08 13:12:33;;;;;;;3.15;1.10;;;21.10;99.90;;;;;;4996061;28;20074;-88
2022/08/08 13:15:02;;;;;;;3.20;1.00;;;21.10;99.90;;;;;;4978705;28;20050;-88
2022/08/08 13:17:30;;;;;;;3.50;1.20;;;21.10;99.90;;;;;;4995369;28;20394;-88
2022/08/08 13:19:56;;;;;;;5.80;1.20;;;21.10;99.90;;;;;;4978449;28;20087;-88
2022/08/08 13:22:23;;;;;;;4.25;0.93;;;21.10;99.90;;;;;;4978726;28;20145;-88